Main page
METAR-TAF:

METAR-TAF

Airports :

Aurillac – Tronquières Airport

Aurillac, France

latitude: 44-53N, longitude: 002-25E, elevation: 639 m

Current weather observation

The report was made 42 minutes ago, at 06:00 UTC
Wind 3 kt from the East/Southeast, varying between East and Southeast
Temperature 17°C
Humidity 68%
Pressure 1014 hPa
Visibility 10 km or more
no clouds below 1500 m and no cumulonimbus

METAR: LFLW 130600Z AUTO 11003KT 080V140 CAVOK 17/11 Q1014 NOSIG

Time: 08:42 (06:42 UTC)

Forecast

The report was made 1 hour and 42 minutes ago, at 05:00 UTC
Forecast valid from 13 at 06 UTC to 13 at 15 UTC
Wind 3 kt from variable directions
Visibility 10 km or more
no clouds below 1500 m and no cumulonimbus
Becoming
from 13 at 10 UTC to 13 at 12 UTC
Wind 10 kt from the West/Northwest

TAF: LFLW 130500Z 1306/1315 VRB03KT CAVOK BECMG 1310/1312 30010KT

Weather observations and forecasts of more than 4000 airports (METAR and TAF reports).

The available stations are represented by yellow and red dots on the map.

Hover mouse over dot to see the name of the station.

Then click to see weather observations and forecasts.

To change the map : click on the green buttons with a black cross to zoom in, on the green button with a dash to zoom out, or on the green arrows for adjacent maps.


METAR-TAF: